Time;durP1;ratioP1;P1;durP2;ratioP2;P2;SDS_P1;SDS_P2;PMS_P1;PMS_P2;Temp;Humidity;BMP_temperature;BMP_pressure;BME280_temperature;BME280_humidity;BME280_pressure;Samples;Min_cycle;Max_cycle;Signal;HPM_P1;HPM_P2
2021/12/25 00:00:02;;;;;;;10.18;4.75;;;0.50;99.90;;;;;;4970218;28;20409;-66
2021/12/25 00:02:28;;;;;;;7.40;4.18;;;0.40;99.90;;;;;;4970087;28;20078;-65
2021/12/25 00:04:54;;;;;;;11.32;4.47;;;0.40;99.90;;;;;;4954065;28;20074;-66
2021/12/25 00:07:20;;;;;;;8.82;5.15;;;0.30;99.90;;;;;;4969870;28;20047;-66
2021/12/25 00:09:45;;;;;;;8.07;3.58;;;0.20;99.90;;;;;;4954193;28;20039;-66
2021/12/25 00:12:11;;;;;;;6.35;3.88;;;0.20;99.90;;;;;;4970204;28;20035;-66
2021/12/25 00:14:37;;;;;;;7.20;3.80;;;0.10;99.90;;;;;;4953973;28;20491;-66
2021/12/25 00:17:03;;;;;;;8.40;3.67;;;0.10;99.90;;;;;;4969703;28;20067;-66
2021/12/25 00:19:29;;;;;;;8.27;3.42;;;0.00;99.90;;;;;;4967513;28;20054;-67
2021/12/25 00:21:55;;;;;;;5.95;2.78;;;0.00;99.90;;;;;;4953568;28;20047;-67
2021/12/25 00:24:21;;;;;;;4.57;2.30;;;0.00;99.90;;;;;;4953743;28;20082;-66
2021/12/25 00:26:55;;;;;;;4.55;2.25;;;-0.10;99.90;;;;;;4969689;28;20051;-66
2021/12/25 00:34:38;;;;;;;6.70;2.50;;;-0.20;99.90;;;;;;4969664;28;20279;-67
2021/12/25 00:37:05;;;;;;;4.50;2.25;;;-0.20;99.90;;;;;;4969563;28;20043;-67
2021/12/25 00:39:31;;;;;;;7.70;1.98;;;-0.30;99.90;;;;;;4969844;28;20104;-67
2021/12/25 00:41:58;;;;;;;9.77;1.83;;;-0.30;99.90;;;;;;4969539;28;20053;-66
2021/12/25 00:44:25;;;;;;;5.95;1.60;;;-0.30;99.90;;;;;;4969664;28;20047;-66
2021/12/25 00:46:51;;;;;;;6.40;2.03;;;-0.30;99.90;;;;;;4969350;28;20043;-67
2021/12/25 00:49:17;;;;;;;5.95;1.70;;;-0.40;99.90;;;;;;4966462;28;20051;-67
2021/12/25 00:51:43;;;;;;;3.35;1.63;;;-0.30;99.90;;;;;;5001812;28;20047;-66
2021/12/25 00:54:09;;;;;;;5.15;1.50;;;-0.40;99.90;;;;;;4953592;28;20038;-67
2021/12/25 00:56:35;;;;;;;4.60;1.42;;;-0.40;99.90;;;;;;4969557;28;20059;-67
2021/12/25 00:59:01;;;;;;;4.18;2.55;;;-0.40;99.90;;;;;;4969611;28;20122;-67
2021/12/25 01:01:27;;;;;;;7.10;1.30;;;-0.50;99.90;;;;;;4969437;28;20403;-67
2021/12/25 01:03:53;;;;;;;3.88;1.27;;;-0.50;99.90;;;;;;4969317;28;20047;-67
2021/12/25 01:06:19;;;;;;;5.03;1.73;;;-0.50;99.90;;;;;;4953040;28;20121;-66
2021/12/25 01:08:45;;;;;;;5.15;1.30;;;-0.50;99.90;;;;;;4953514;28;20041;-66
2021/12/25 01:11:11;;;;;;;2.65;1.10;;;-0.40;99.90;;;;;;4969384;28;20053;-66
2021/12/25 01:13:44;;;;;;;6.68;1.33;;;-0.50;99.90;;;;;;4969159;28;20042;-66
2021/12/25 01:35:07;;;;;;;4.53;1.20;;;-0.80;99.90;;;;;;4969199;28;20152;-66
2021/12/25 01:40:43;;;;;;;3.85;1.05;;;-0.80;99.90;;;;;;4968954;28;20116;-66
2021/12/25 01:48:38;;;;;;;3.05;1.23;;;-0.90;99.90;;;;;;4966249;28;20104;-66
2021/12/25 01:51:05;;;;;;;6.30;1.10;;;-0.90;99.90;;;;;;4952635;28;20130;-66
2021/12/25 01:53:31;;;;;;;6.63;1.30;;;-0.90;99.90;;;;;;4952733;28;20058;-66
2021/12/25 01:55:59;;;;;;;4.32;1.27;;;-1.00;99.90;;;;;;4952634;28;20438;-66
2021/12/25 01:58:25;;;;;;;4.47;1.08;;;-1.00;99.90;;;;;;4968606;28;20050;-66
2021/12/25 02:00:55;;;;;;;4.07;0.80;;;-1.10;99.90;;;;;;4969382;28;20039;-66
2021/12/25 02:03:24;;;;;;;5.70;1.25;;;-1.10;99.90;;;;;;4956079;28;20475;-66
2021/12/25 02:05:51;;;;;;;4.07;1.05;;;-1.20;99.90;;;;;;4971863;28;20262;-66
2021/12/25 02:08:17;;;;;;;4.80;0.70;;;-1.20;99.90;;;;;;4955977;28;20131;-66
2021/12/25 02:10:43;;;;;;;1.55;0.88;;;-1.20;99.90;;;;;;4971876;28;20042;-66
2021/12/25 02:13:11;;;;;;;3.42;0.80;;;-1.30;99.90;;;;;;4971973;28;20046;-66
2021/12/25 02:15:41;;;;;;;6.07;1.55;;;-1.30;99.90;;;;;;4955725;28;20053;-66
2021/12/25 02:20:45;;;;;;;5.63;0.80;;;-1.40;99.90;;;;;;4971743;28;20499;-66
2021/12/25 02:23:19;;;;;;;2.40;0.80;;;-1.40;99.90;;;;;;4971837;28;20086;-66
2021/12/25 02:25:46;;;;;;;4.40;1.67;;;-1.40;99.90;;;;;;4971523;28;20050;-66
2021/12/25 02:28:14;;;;;;;2.75;0.80;;;-1.50;99.90;;;;;;4971790;28;20080;-66
2021/12/25 02:30:42;;;;;;;5.57;1.45;;;-1.50;99.90;;;;;;4955458;28;20049;-66
2021/12/25 02:33:08;;;;;;;4.13;1.10;;;-1.60;99.90;;;;;;4971421;28;20046;-66
2021/12/25 02:35:34;;;;;;;2.42;0.90;;;-1.60;99.90;;;;;;4971489;28;20126;-66
2021/12/25 02:38:00;;;;;;;3.42;0.73;;;-1.60;99.90;;;;;;4971345;28;20078;-66
2021/12/25 02:40:26;;;;;;;3.15;0.77;;;-1.70;99.90;;;;;;4971477;28;20089;-66
2021/12/25 02:42:52;;;;;;;3.13;0.73;;;-1.70;99.90;;;;;;4971476;28;20043;-66
2021/12/25 02:45:20;;;;;;;2.17;0.80;;;-1.70;99.90;;;;;;4971551;28;20039;-66
2021/12/25 02:47:48;;;;;;;3.75;0.88;;;-1.70;99.90;;;;;;4968836;28;20042;-65
2021/12/25 02:50:28;;;;;;;4.70;0.70;;;-1.80;99.90;;;;;;4955208;28;20521;-66
2021/12/25 02:52:57;;;;;;;3.13;0.70;;;-1.80;99.90;;;;;;4971197;28;20130;-66
2021/12/25 02:55:25;;;;;;;3.88;1.13;;;-1.80;99.90;;;;;;4971537;28;20046;-65
2021/12/25 02:57:52;;;;;;;6.20;1.00;;;-1.90;99.90;;;;;;4955052;28;20042;-65
2021/12/25 03:00:24;;;;;;;1.77;0.70;;;-1.90;99.90;;;;;;4987686;28;20199;-66
2021/12/25 03:02:50;;;;;;;5.78;1.10;;;-2.00;99.90;;;;;;4955212;28;20043;-66
2021/12/25 03:05:16;;;;;;;3.58;0.90;;;-2.00;99.90;;;;;;4987216;28;20507;-65
2021/12/25 03:07:42;;;;;;;3.20;0.90;;;-2.00;99.90;;;;;;4970833;28;20046;-66
2021/12/25 03:10:10;;;;;;;4.03;1.10;;;-2.00;99.90;;;;;;4971252;28;20047;-66
2021/12/25 03:12:47;;;;;;;3.45;1.08;;;-2.00;99.90;;;;;;4970856;28;20108;-65
2021/12/25 03:15:17;;;;;;;4.53;1.02;;;-2.10;99.90;;;;;;4971196;28;20096;-66
2021/12/25 03:17:43;;;;;;;3.90;0.93;;;-2.10;99.90;;;;;;5000865;28;20072;-65
2021/12/25 03:20:11;;;;;;;4.10;0.95;;;-2.20;99.90;;;;;;4970892;28;20042;-66
2021/12/25 03:22:38;;;;;;;4.82;1.67;;;-2.20;99.90;;;;;;4954993;28;20453;-66
2021/12/25 03:25:10;;;;;;;3.40;1.67;;;-2.20;99.90;;;;;;4971051;28;20304;-66
2021/12/25 03:27:40;;;;;;;4.88;0.80;;;-2.20;99.90;;;;;;5003263;28;20039;-66
2021/12/25 03:30:09;;;;;;;2.60;0.60;;;-2.20;99.90;;;;;;4971236;28;20431;-66
2021/12/25 03:32:35;;;;;;;1.67;0.70;;;-2.30;99.90;;;;;;4970885;28;20070;-66
2021/12/25 03:35:01;;;;;;;4.28;0.73;;;-2.30;99.90;;;;;;4970989;28;20082;-66
2021/12/25 03:37:27;;;;;;;3.42;0.93;;;-2.30;99.90;;;;;;5003523;28;20441;-66
2021/12/25 03:39:53;;;;;;;5.53;0.80;;;-2.30;99.90;;;;;;4970562;28;20126;-66
2021/12/25 03:42:20;;;;;;;1.90;0.80;;;-2.30;99.90;;;;;;4954425;28;20043;-66
2021/12/25 03:44:46;;;;;;;3.13;0.90;;;-2.30;99.90;;;;;;4968795;28;20051;-66
2021/12/25 03:47:23;;;;;;;1.27;0.68;;;-2.30;99.90;;;;;;4951139;28;20061;-65
2021/12/25 03:58:07;;;;;;;3.22;0.85;;;-2.40;99.90;;;;;;4951028;28;20518;-66
2021/12/25 04:00:35;;;;;;;3.17;0.77;;;-2.40;99.90;;;;;;4951233;29;20480;-66
2021/12/25 04:03:06;;;;;;;4.32;0.95;;;-2.50;99.90;;;;;;4951056;29;20066;-65
2021/12/25 04:05:33;;;;;;;1.63;0.82;;;-2.50;99.90;;;;;;4951014;28;20543;-66
2021/12/25 04:08:06;;;;;;;2.60;0.90;;;-2.50;99.90;;;;;;4950729;29;20100;-66
2021/12/25 04:10:38;;;;;;;8.15;1.63;;;-2.60;99.90;;;;;;4951342;28;20043;-66
2021/12/25 04:13:08;;;;;;;9.18;1.13;;;-2.60;99.90;;;;;;4935023;29;20046;-66
2021/12/25 04:15:34;;;;;;;3.28;0.90;;;-2.60;99.90;;;;;;4950985;28;20043;-66
2021/12/25 04:18:00;;;;;;;1.35;0.77;;;-2.70;99.90;;;;;;4960745;28;20062;-65
2021/12/25 04:20:27;;;;;;;3.65;0.80;;;-2.70;99.90;;;;;;5002437;28;20054;-66
2021/12/25 04:23:06;;;;;;;3.92;0.90;;;-2.70;99.90;;;;;;4986080;28;20043;-66
2021/12/25 04:25:34;;;;;;;1.95;0.50;;;-2.70;99.90;;;;;;5002200;28;20129;-66
2021/12/25 04:28:10;;;;;;;1.42;0.80;;;-2.80;99.90;;;;;;4985909;28;20487;-66
2021/12/25 04:49:53;;;;;;;2.92;0.77;;;-2.90;99.90;;;;;;4986556;28;20053;-65
2021/12/25 05:05:49;;;;;;;3.03;1.20;;;-3.00;99.90;;;;;;4988956;28;20425;-66
2021/12/25 05:08:14;;;;;;;1.85;0.57;;;-3.10;99.90;;;;;;5004900;28;20039;-65
2021/12/25 05:10:40;;;;;;;1.50;0.75;;;-3.10;99.90;;;;;;4988540;28;20043;-65
2021/12/25 05:13:06;;;;;;;2.03;0.60;;;-3.10;99.90;;;;;;4988635;28;20050;-65
2021/12/25 05:15:32;;;;;;;3.50;0.63;;;-3.10;99.90;;;;;;4988489;28;20042;-65
2021/12/25 05:17:58;;;;;;;1.25;0.60;;;-3.20;99.90;;;;;;4974022;28;20055;-66
2021/12/25 05:20:24;;;;;;;4.00;0.90;;;-3.20;99.90;;;;;;4953173;28;20082;-66
2021/12/25 05:22:50;;;;;;;3.20;0.98;;;-3.20;99.90;;;;;;4969274;28;20047;-66
2021/12/25 05:25:16;;;;;;;0.70;0.68;;;-3.20;99.90;;;;;;4985145;28;20062;-66
2021/12/25 05:27:42;;;;;;;3.05;0.75;;;-3.20;99.90;;;;;;4969060;28;20035;-65
2021/12/25 05:30:08;;;;;;;2.45;0.70;;;-3.20;99.90;;;;;;4968939;28;20066;-65
2021/12/25 05:32:34;;;;;;;0.95;0.52;;;-3.20;99.90;;;;;;5001527;28;20077;-65
2021/12/25 05:35:00;;;;;;;0.75;0.40;;;-3.30;99.90;;;;;;5002337;28;20042;-65
2021/12/25 05:37:26;;;;;;;2.63;0.77;;;-3.30;99.90;;;;;;4972718;28;20403;-65
2021/12/25 05:39:51;;;;;;;0.90;0.50;;;-3.30;99.90;;;;;;4972519;28;20434;-65
2021/12/25 05:42:20;;;;;;;1.73;0.70;;;-3.30;99.90;;;;;;4972608;28;20479;-65
2021/12/25 05:44:46;;;;;;;1.25;0.63;;;-3.30;99.90;;;;;;4956129;28;20499;-66
2021/12/25 05:47:12;;;;;;;2.30;0.73;;;-3.30;99.90;;;;;;4972214;28;20043;-65
2021/12/25 05:49:38;;;;;;;1.42;0.68;;;-3.40;99.90;;;;;;4969970;28;20045;-65
2021/12/25 05:52:05;;;;;;;1.45;0.60;;;-3.30;99.90;;;;;;4972152;28;20411;-65
2021/12/25 05:54:30;;;;;;;1.48;0.93;;;-3.30;99.90;;;;;;4971972;28;20035;-65
2021/12/25 05:56:56;;;;;;;1.65;0.88;;;-3.40;99.90;;;;;;4972385;28;20049;-65
2021/12/25 05:59:22;;;;;;;2.10;0.90;;;-3.40;99.90;;;;;;4956228;28;20407;-65
2021/12/25 06:01:48;;;;;;;2.08;0.73;;;-3.40;99.90;;;;;;4972249;28;20055;-65
2021/12/25 06:04:14;;;;;;;1.52;0.60;;;-3.40;99.90;;;;;;4971852;28;20046;-65
2021/12/25 06:06:39;;;;;;;1.38;0.65;;;-3.40;99.90;;;;;;4971935;28;20051;-65
2021/12/25 06:09:09;;;;;;;4.45;2.03;;;-3.40;99.90;;;;;;4972153;28;20130;-65
2021/12/25 06:11:36;;;;;;;0.75;0.40;;;-3.40;99.90;;;;;;4971954;28;20121;-65
2021/12/25 06:14:11;;;;;;;3.88;0.88;;;-3.40;99.90;;;;;;4971866;28;20040;-65
2021/12/25 06:16:38;;;;;;;1.38;0.70;;;-3.50;99.90;;;;;;4974273;28;20121;-65
2021/12/25 06:19:05;;;;;;;1.00;0.60;;;-3.50;99.90;;;;;;4992061;28;20057;-65
2021/12/25 06:21:31;;;;;;;0.98;0.60;;;-3.50;99.90;;;;;;4994588;28;20042;-65
2021/12/25 06:24:00;;;;;;;2.28;0.88;;;-3.50;99.90;;;;;;4994348;28;20042;-65
2021/12/25 06:26:26;;;;;;;1.60;0.80;;;-3.50;99.90;;;;;;4994182;28;20057;-65
2021/12/25 06:28:52;;;;;;;2.35;0.90;;;-3.60;99.90;;;;;;4978034;28;20033;-65
2021/12/25 06:31:18;;;;;;;1.58;1.00;;;-3.60;99.90;;;;;;4994078;28;20057;-65
2021/12/25 06:33:43;;;;;;;1.83;1.00;;;-3.50;99.90;;;;;;4978026;28;20042;-66
2021/12/25 06:36:09;;;;;;;2.05;0.93;;;-3.50;99.90;;;;;;4977829;28;20050;-65
2021/12/25 06:38:36;;;;;;;1.63;0.85;;;-3.50;99.90;;;;;;4994140;28;20126;-65
2021/12/25 06:41:01;;;;;;;3.00;0.90;;;-3.50;99.90;;;;;;4994019;28;20566;-65
2021/12/25 06:43:27;;;;;;;1.15;0.90;;;-3.50;99.90;;;;;;4978515;28;20075;-65
2021/12/25 06:45:53;;;;;;;1.65;0.80;;;-3.50;99.90;;;;;;5011429;28;20768;-65
2021/12/25 06:48:19;;;;;;;0.80;0.40;;;-3.50;99.90;;;;;;4991054;28;20073;-65
2021/12/25 06:50:45;;;;;;;3.83;1.00;;;-3.50;99.90;;;;;;4993874;28;20046;-65
2021/12/25 06:53:10;;;;;;;1.48;0.82;;;-3.50;99.90;;;;;;4993901;28;20074;-65
2021/12/25 06:55:36;;;;;;;2.20;0.70;;;-3.50;99.90;;;;;;5010119;28;20053;-65
2021/12/25 06:58:04;;;;;;;2.13;0.63;;;-3.50;99.90;;;;;;4993780;28;20042;-65
2021/12/25 07:00:30;;;;;;;2.78;0.80;;;-3.40;99.90;;;;;;4993919;28;20081;-65
2021/12/25 07:02:57;;;;;;;2.80;0.70;;;-3.40;99.90;;;;;;4993743;28;20128;-65
2021/12/25 07:05:23;;;;;;;2.85;0.90;;;-3.50;99.90;;;;;;5026706;28;20456;-65
2021/12/25 07:07:51;;;;;;;3.78;0.73;;;-3.50;99.90;;;;;;4993743;28;20046;-65
2021/12/25 07:10:17;;;;;;;2.47;0.68;;;-3.50;99.90;;;;;;4993741;28;20042;-65
2021/12/25 07:12:46;;;;;;;1.40;0.70;;;-3.50;99.90;;;;;;5011274;28;20490;-65
2021/12/25 07:15:12;;;;;;;1.58;0.60;;;-3.50;99.90;;;;;;4993518;28;20049;-65
2021/12/25 07:17:38;;;;;;;1.55;0.80;;;-3.60;99.90;;;;;;4991204;28;20062;-65
2021/12/25 07:20:05;;;;;;;1.20;0.45;;;-3.60;99.90;;;;;;4993566;28;20054;-65
2021/12/25 07:22:31;;;;;;;1.90;0.73;;;-3.60;99.90;;;;;;5009806;28;20134;-65
2021/12/25 07:24:57;;;;;;;0.93;0.52;;;-3.60;99.90;;;;;;5026448;28;20086;-65
2021/12/25 07:27:23;;;;;;;2.13;0.63;;;-3.70;99.90;;;;;;4993335;28;20046;-65
2021/12/25 07:29:49;;;;;;;1.45;0.80;;;-3.70;99.90;;;;;;4993697;28;20158;-65
2021/12/25 07:32:15;;;;;;;0.45;0.40;;;-3.70;99.90;;;;;;4993499;28;20142;-66
2021/12/25 07:34:45;;;;;;;1.75;0.90;;;-3.70;99.90;;;;;;5009712;28;20071;-65
2021/12/25 07:37:13;;;;;;;2.63;0.82;;;-3.80;99.90;;;;;;5026058;28;20107;-65
2021/12/25 07:39:40;;;;;;;2.60;0.80;;;-3.80;99.90;;;;;;5025957;28;20558;-65
2021/12/25 07:42:07;;;;;;;1.40;0.68;;;-3.80;99.90;;;;;;4993451;28;20046;-65
2021/12/25 07:44:32;;;;;;;2.92;0.80;;;-3.80;99.90;;;;;;5009518;28;20045;-65
2021/12/25 07:46:59;;;;;;;2.40;0.60;;;-3.90;99.90;;;;;;5009310;28;20056;-64
2021/12/25 07:49:26;;;;;;;0.73;0.60;;;-3.90;99.90;;;;;;4991067;28;20452;-65
2021/12/25 07:51:52;;;;;;;2.83;1.23;;;-3.90;99.90;;;;;;4992958;28;20038;-65
2021/12/25 07:54:17;;;;;;;1.58;0.98;;;-3.90;99.90;;;;;;4992924;28;20038;-65
2021/12/25 07:56:44;;;;;;;2.30;0.77;;;-3.90;99.90;;;;;;4992375;28;20048;-65
2021/12/25 07:59:10;;;;;;;0.75;0.57;;;-3.90;99.90;;;;;;4991731;28;20045;-65
2021/12/25 08:01:36;;;;;;;2.90;0.70;;;-3.90;99.90;;;;;;4992830;28;20085;-65
2021/12/25 08:04:03;;;;;;;5.30;0.75;;;-3.90;99.90;;;;;;4976916;28;20085;-65
2021/12/25 08:06:30;;;;;;;1.83;0.50;;;-3.90;99.90;;;;;;4992766;28;20053;-64
2021/12/25 08:09:00;;;;;;;0.35;0.30;;;-3.90;99.90;;;;;;4992942;28;20520;-64
2021/12/25 08:11:28;;;;;;;2.00;0.60;;;-3.90;99.90;;;;;;4992836;28;20046;-64
2021/12/25 08:13:54;;;;;;;1.95;0.60;;;-3.90;99.90;;;;;;4992740;28;20038;-65
2021/12/25 08:16:20;;;;;;;2.05;0.80;;;-3.90;99.90;;;;;;4976297;28;20094;-65
2021/12/25 08:18:46;;;;;;;2.45;0.80;;;-3.80;99.90;;;;;;4990053;28;20065;-65
2021/12/25 08:21:13;;;;;;;1.60;1.08;;;-3.80;99.90;;;;;;4992647;28;20133;-64
2021/12/25 08:23:39;;;;;;;1.35;0.70;;;-3.90;99.90;;;;;;4992720;28;20052;-64
2021/12/25 08:26:06;;;;;;;1.40;0.65;;;-3.80;99.90;;;;;;4992826;28;20049;-64
2021/12/25 08:28:32;;;;;;;2.63;0.68;;;-3.80;99.90;;;;;;4992446;28;20042;-64
2021/12/25 08:30:58;;;;;;;1.52;0.60;;;-3.80;99.90;;;;;;4992628;28;20046;-64
2021/12/25 08:33:24;;;;;;;1.95;0.90;;;-3.80;99.90;;;;;;4992462;28;20042;-64
2021/12/25 08:35:50;;;;;;;1.00;0.60;;;-3.70;99.90;;;;;;4992304;28;20114;-64
2021/12/25 08:38:15;;;;;;;2.00;0.70;;;-3.70;99.90;;;;;;4992191;28;20482;-64
2021/12/25 08:40:43;;;;;;;0.73;0.68;;;-3.60;99.90;;;;;;4992374;28;20117;-64
2021/12/25 08:43:09;;;;;;;3.70;0.88;;;-3.50;99.90;;;;;;4992119;28;20049;-64
2021/12/25 08:45:41;;;;;;;1.63;0.75;;;-3.50;99.90;;;;;;4989100;28;20037;-64
2021/12/25 08:48:13;;;;;;;1.13;0.60;;;-3.50;99.90;;;;;;4989562;28;20057;-64
2021/12/25 08:50:40;;;;;;;0.95;0.70;;;-3.30;99.90;;;;;;4992074;28;20065;-64
2021/12/25 08:53:06;;;;;;;1.02;0.35;;;-2.90;99.90;;;;;;4991860;28;20045;-64
2021/12/25 08:55:32;;;;;;;4.57;0.60;;;-2.60;99.90;;;;;;4992249;28;20045;-64
2021/12/25 08:57:59;;;;;;;1.45;0.68;;;-2.40;99.90;;;;;;4991062;28;20046;-64
2021/12/25 09:00:25;;;;;;;3.20;0.82;;;-2.30;99.90;;;;;;4991938;28;20208;-64
2021/12/25 09:02:52;;;;;;;1.42;0.65;;;-2.10;99.90;;;;;;5040310;28;20065;-64
2021/12/25 09:05:18;;;;;;;5.10;0.80;;;-1.90;99.90;;;;;;5094473;28;20122;-64
2021/12/25 09:07:44;;;;;;;0.82;0.52;;;-1.90;99.90;;;;;;5093841;28;20464;-64
2021/12/25 09:10:10;;;;;;;0.43;0.38;;;-1.80;99.90;;;;;;5076809;28;20483;-65
2021/12/25 09:12:40;;;;;;;1.00;0.70;;;-1.60;99.90;;;;;;5077202;28;20104;-65
2021/12/25 09:15:07;;;;;;;1.80;0.47;;;-1.40;99.90;;;;;;5094258;28;20036;-64
2021/12/25 09:17:33;;;;;;;1.67;0.50;;;-1.50;98.30;;;;;;5092756;28;20058;-64
2021/12/25 09:19:59;;;;;;;3.90;0.80;;;-1.60;99.80;;;;;;5092814;28;20055;-64
2021/12/25 09:22:24;;;;;;;2.53;0.70;;;-1.50;99.90;;;;;;5094006;28;20079;-64
2021/12/25 09:24:50;;;;;;;2.03;0.45;;;-1.40;99.30;;;;;;5094146;28;20126;-64
2021/12/25 09:27:16;;;;;;;2.50;0.60;;;-1.40;99.20;;;;;;5094341;28;20100;-66
2021/12/25 09:29:42;;;;;;;3.45;0.57;;;-1.40;97.80;;;;;;5094395;28;20028;-66
2021/12/25 09:32:08;;;;;;;2.20;0.52;;;-1.10;98.50;;;;;;5094434;28;20517;-65
2021/12/25 09:34:34;;;;;;;3.25;0.60;;;-0.60;97.30;;;;;;5077371;28;20040;-65
2021/12/25 09:37:00;;;;;;;2.10;0.50;;;-0.40;94.80;;;;;;5094373;28;20396;-65
2021/12/25 09:39:26;;;;;;;1.10;0.57;;;0.00;96.20;;;;;;5042498;28;20064;-65
2021/12/25 09:41:52;;;;;;;2.13;0.60;;;0.80;97.40;;;;;;4991527;28;20046;-66
2021/12/25 09:44:18;;;;;;;2.20;0.70;;;1.50;94.50;;;;;;4975491;28;20076;-66
2021/12/25 09:46:44;;;;;;;1.75;0.47;;;2.20;94.30;;;;;;4991784;28;20081;-66
2021/12/25 09:49:11;;;;;;;0.60;0.50;;;2.60;87.90;;;;;;5005580;28;20560;-65
2021/12/25 09:51:37;;;;;;;1.85;0.50;;;2.80;85.60;;;;;;4991598;28;20057;-66
2021/12/25 09:54:08;;;;;;;1.38;0.45;;;3.10;81.10;;;;;;5007985;28;20038;-66
2021/12/25 09:56:36;;;;;;;1.23;0.70;;;3.10;77.70;;;;;;4991597;28;20045;-65
2021/12/25 09:59:04;;;;;;;2.40;0.80;;;3.20;78.90;;;;;;4991543;28;20057;-65
2021/12/25 10:01:47;;;;;;;1.75;0.40;;;3.60;78.60;;;;;;5008195;28;20395;-66
2021/12/25 10:04:38;;;;;;;2.30;0.50;;;3.70;75.80;;;;;;4991620;28;20053;-65
2021/12/25 10:07:19;;;;;;;2.25;0.70;;;4.00;77.40;;;;;;5016217;28;20057;-65
2021/12/25 10:10:04;;;;;;;1.20;0.57;;;4.00;72.20;;;;;;4991398;28;20041;-65
2021/12/25 10:12:40;;;;;;;1.75;0.60;;;4.20;74.40;;;;;;5023950;28;20057;-66
2021/12/25 10:15:09;;;;;;;1.60;0.40;;;4.40;74.10;;;;;;4991553;28;20050;-66
2021/12/25 10:17:52;;;;;;;2.95;0.80;;;4.80;72.40;;;;;;4990438;28;20111;-66
2021/12/25 10:20:23;;;;;;;1.05;0.43;;;4.70;69.00;;;;;;4975505;28;20137;-66
2021/12/25 10:23:08;;;;;;;1.35;0.50;;;4.70;69.70;;;;;;4993320;28;20061;-66
2021/12/25 10:25:45;;;;;;;3.58;0.70;;;4.70;67.60;;;;;;5027514;28;20050;-65
2021/12/25 10:28:13;;;;;;;2.47;0.43;;;4.70;67.60;;;;;;4978276;28;20042;-66
2021/12/25 10:30:58;;;;;;;1.38;1.25;;;4.70;66.60;;;;;;4994849;28;20390;-65
2021/12/25 10:33:28;;;;;;;4.65;0.85;;;4.50;65.90;;;;;;5027618;28;20042;-66
2021/12/25 10:35:55;;;;;;;2.80;0.80;;;4.80;68.20;;;;;;4994351;28;20045;-66
2021/12/25 10:38:24;;;;;;;2.38;0.77;;;5.10;68.00;;;;;;4994364;28;20562;-66
2021/12/25 10:41:06;;;;;;;3.05;0.90;;;5.20;65.90;;;;;;4994386;28;20129;-66
2021/12/25 10:43:40;;;;;;;5.03;0.80;;;5.30;64.50;;;;;;4994205;28;20050;-66
2021/12/25 10:46:06;;;;;;;2.55;0.50;;;5.70;67.90;;;;;;4994549;28;20041;-66
2021/12/25 10:48:32;;;;;;;2.72;0.60;;;5.90;66.90;;;;;;4992509;28;20069;-66
2021/12/25 10:50:59;;;;;;;2.83;0.70;;;6.00;64.20;;;;;;4994428;28;20501;-66
2021/12/25 10:53:40;;;;;;;1.83;0.60;;;6.20;66.40;;;;;;4994198;28;20034;-67
2021/12/25 10:56:09;;;;;;;2.83;0.50;;;6.50;62.90;;;;;;4977804;28;20042;-65
2021/12/25 10:58:36;;;;;;;1.45;0.40;;;6.40;61.30;;;;;;4977895;28;20493;-67
2021/12/25 11:01:05;;;;;;;2.30;0.88;;;6.10;60.90;;;;;;4993989;28;20042;-67
2021/12/25 11:03:44;;;;;;;2.35;0.68;;;6.00;62.30;;;;;;4993855;28;20037;-66
2021/12/25 11:06:17;;;;;;;0.73;0.38;;;6.20;63.50;;;;;;4993757;28;20038;-66
2021/12/25 11:08:46;;;;;;;1.30;0.52;;;6.30;59.50;;;;;;4993733;28;20042;-65
2021/12/25 11:11:19;;;;;;;0.73;0.40;;;6.20;60.20;;;;;;4993834;28;20100;-64
2021/12/25 11:13:55;;;;;;;2.60;1.27;;;6.20;60.30;;;;;;4993735;28;20073;-65
2021/12/25 11:16:30;;;;;;;1.63;0.63;;;6.30;60.80;;;;;;4993718;28;20049;-65
2021/12/25 11:19:14;;;;;;;1.55;0.68;;;6.70;62.20;;;;;;4990912;28;20135;-65
2021/12/25 11:21:43;;;;;;;2.90;0.63;;;6.90;59.20;;;;;;4993374;28;20094;-66
2021/12/25 11:24:43;;;;;;;1.73;0.68;;;6.90;59.00;;;;;;4993293;28;20034;-64
2021/12/25 11:27:09;;;;;;;0.93;0.52;;;6.90;57.10;;;;;;4994088;28;20085;-65
2021/12/25 11:29:37;;;;;;;1.80;0.50;;;6.80;58.00;;;;;;4993064;28;20049;-64
2021/12/25 11:32:06;;;;;;;1.95;0.52;;;6.70;57.90;;;;;;4977179;28;20076;-66
2021/12/25 11:34:32;;;;;;;1.55;0.50;;;6.70;58.60;;;;;;4976786;28;20062;-64
2021/12/25 11:37:00;;;;;;;1.55;0.70;;;6.60;58.30;;;;;;4993464;28;20102;-65
2021/12/25 11:39:29;;;;;;;3.40;0.70;;;6.20;56.50;;;;;;5028508;28;20074;-64
2021/12/25 11:42:04;;;;;;;1.83;0.70;;;5.90;59.10;;;;;;5095580;28;20100;-64
2021/12/25 11:44:44;;;;;;;1.95;0.55;;;5.80;59.30;;;;;;5095607;28;20043;-65
2021/12/25 11:47:39;;;;;;;1.35;0.60;;;5.80;57.80;;;;;;4957598;28;20046;-64
2021/12/25 11:50:09;;;;;;;0.85;0.38;;;5.80;56.40;;;;;;4972943;28;20074;-65
2021/12/25 11:52:51;;;;;;;1.30;0.68;;;5.70;57.90;;;;;;4973827;28;20046;-65
2021/12/25 11:55:51;;;;;;;2.00;0.88;;;5.80;59.30;;;;;;4990014;28;20035;-64
2021/12/25 11:58:51;;;;;;;1.77;1.05;;;6.10;61.00;;;;;;4973427;28;20140;-65
2021/12/25 12:01:22;;;;;;;2.42;0.82;;;6.00;57.70;;;;;;4973323;28;20050;-64
2021/12/25 12:03:58;;;;;;;1.65;0.63;;;5.80;58.20;;;;;;4957305;28;20096;-64
2021/12/25 12:06:45;;;;;;;2.95;0.70;;;5.50;58.20;;;;;;4973274;28;20054;-65
2021/12/25 12:09:24;;;;;;;1.50;0.73;;;5.20;58.60;;;;;;4973162;28;20038;-65
2021/12/25 12:12:13;;;;;;;2.38;0.73;;;5.30;60.10;;;;;;4973428;28;20421;-64
2021/12/25 12:14:39;;;;;;;1.70;0.73;;;5.70;60.40;;;;;;4973394;28;20038;-65
2021/12/25 12:17:28;;;;;;;2.60;0.80;;;5.60;60.50;;;;;;4973338;28;20478;-64
2021/12/25 12:19:55;;;;;;;3.53;0.90;;;5.50;61.30;;;;;;4986875;28;20050;-65
2021/12/25 12:27:42;;;;;;;1.45;0.50;;;4.40;57.60;;;;;;4972999;28;20521;-64
2021/12/25 12:30:33;;;;;;;3.28;0.68;;;3.40;60.30;;;;;;4972830;28;20039;-63
2021/12/25 12:33:12;;;;;;;2.05;0.77;;;2.90;62.50;;;;;;4972723;28;20062;-64
2021/12/25 12:35:40;;;;;;;1.95;0.60;;;2.50;63.70;;;;;;4956617;28;20042;-64
2021/12/25 12:38:48;;;;;;;3.03;0.90;;;2.20;64.30;;;;;;4972876;28;20045;-65
2021/12/25 12:41:35;;;;;;;1.73;0.95;;;1.90;66.10;;;;;;4972947;28;20133;-65
2021/12/25 12:44:09;;;;;;;5.13;1.00;;;1.70;68.00;;;;;;4972794;28;20038;-65
2021/12/25 12:46:50;;;;;;;2.45;1.15;;;1.60;68.70;;;;;;4972072;28;20041;-64
2021/12/25 12:49:32;;;;;;;5.18;1.20;;;1.50;69.10;;;;;;4989798;28;20050;-65
2021/12/25 12:52:13;;;;;;;1.95;0.50;;;1.40;69.60;;;;;;4992054;28;20077;-64
2021/12/25 12:54:40;;;;;;;2.15;0.90;;;1.40;68.80;;;;;;4976074;28;20385;-64
2021/12/25 12:57:06;;;;;;;1.67;0.65;;;1.00;69.60;;;;;;4975718;28;20088;-65
2021/12/25 13:00:09;;;;;;;2.47;0.63;;;0.80;70.20;;;;;;4976055;28;20042;-64
2021/12/25 13:02:48;;;;;;;4.15;0.95;;;0.60;70.60;;;;;;4976436;28;20069;-64
2021/12/25 13:05:17;;;;;;;2.58;0.77;;;0.40;71.50;;;;;;4992079;28;20181;-64
2021/12/25 13:07:46;;;;;;;1.92;0.60;;;0.20;71.50;;;;;;4991806;28;20149;-64
2021/12/25 13:12:50;;;;;;;0.77;0.40;;;0.10;73.00;;;;;;4991862;28;20111;-64
2021/12/25 13:15:26;;;;;;;1.25;0.52;;;0.30;72.20;;;;;;4991924;28;20053;-64
2021/12/25 13:18:00;;;;;;;2.35;0.75;;;0.30;72.00;;;;;;4972921;28;20136;-65
2021/12/25 13:20:44;;;;;;;1.38;0.70;;;0.40;72.30;;;;;;4975705;28;20262;-64
2021/12/25 13:23:19;;;;;;;2.88;0.80;;;0.30;72.10;;;;;;4991658;28;20042;-65
2021/12/25 13:26:04;;;;;;;1.10;0.68;;;0.20;73.00;;;;;;4991410;28;20094;-64
2021/12/25 13:28:35;;;;;;;1.38;0.73;;;0.30;73.20;;;;;;4991479;28;20472;-65
2021/12/25 13:31:09;;;;;;;2.70;0.63;;;0.10;72.30;;;;;;4991737;28;20103;-65
2021/12/25 13:33:42;;;;;;;3.05;0.70;;;0.00;73.00;;;;;;4991582;28;20124;-65
2021/12/25 13:36:12;;;;;;;2.35;0.55;;;-0.10;73.50;;;;;;4991718;28;20382;-65
2021/12/25 13:39:06;;;;;;;1.48;0.60;;;-0.10;73.90;;;;;;5009070;28;20043;-64
2021/12/25 13:41:41;;;;;;;4.32;0.75;;;-0.10;72.90;;;;;;5093230;28;20043;-64
2021/12/25 13:44:12;;;;;;;1.05;0.63;;;-0.10;73.10;;;;;;5094027;28;20047;-65
2021/12/25 13:46:40;;;;;;;3.20;0.90;;;-0.10;73.50;;;;;;5006673;28;20045;-64
2021/12/25 13:49:05;;;;;;;2.78;0.73;;;-0.10;73.40;;;;;;4973153;28;20107;-65
2021/12/25 13:51:31;;;;;;;4.95;1.15;;;-0.20;73.90;;;;;;4991446;28;20089;-64
2021/12/25 13:53:57;;;;;;;2.42;0.70;;;-0.20;74.60;;;;;;4991202;28;20116;-66
2021/12/25 13:56:23;;;;;;;2.80;0.70;;;-0.30;74.70;;;;;;4992768;28;20045;-65
2021/12/25 13:58:49;;;;;;;0.95;0.50;;;-0.30;74.50;;;;;;4991713;28;20049;-65
2021/12/25 14:01:16;;;;;;;1.88;0.80;;;-0.40;74.80;;;;;;4995019;28;20042;-65
2021/12/25 14:03:43;;;;;;;1.02;0.68;;;-0.50;75.30;;;;;;4994148;28;20094;-65
2021/12/25 14:06:09;;;;;;;2.97;1.27;;;-0.50;75.90;;;;;;4995044;28;20038;-65
2021/12/25 14:08:35;;;;;;;2.42;0.93;;;-0.60;76.60;;;;;;4995083;28;20052;-64
2021/12/25 14:11:01;;;;;;;6.05;1.65;;;-0.60;77.10;;;;;;4995413;28;20124;-65
2021/12/25 14:13:34;;;;;;;3.75;1.75;;;-0.70;77.00;;;;;;4994753;28;20081;-65
2021/12/25 14:16:05;;;;;;;2.30;1.30;;;-0.70;77.30;;;;;;5011960;28;20103;-65
2021/12/25 14:18:37;;;;;;;2.65;1.20;;;-0.70;77.90;;;;;;4990775;28;20065;-66
2021/12/25 14:21:20;;;;;;;3.38;1.73;;;-0.80;78.20;;;;;;5023175;28;20043;-65
2021/12/25 14:24:04;;;;;;;4.53;1.30;;;-0.80;77.40;;;;;;5097619;28;20453;-65
2021/12/25 14:26:30;;;;;;;1.65;0.80;;;-0.90;78.00;;;;;;4974558;28;20129;-65